createdAt,value
2023-10-25T00:01:07.174Z,6.41
2023-10-25T00:03:33.853Z,6.37
2023-10-25T00:06:00.475Z,6.37
2023-10-25T00:08:26.928Z,6.39
2023-10-25T00:11:01.150Z,6.44
2023-10-25T00:13:27.672Z,6.44
2023-10-25T00:15:54.164Z,6.43
2023-10-25T00:18:20.759Z,6.46
2023-10-25T00:20:47.253Z,6.43
2023-10-25T00:23:13.720Z,6.34
2023-10-25T00:25:40.347Z,6.19
2023-10-25T00:28:06.923Z,6.06
2023-10-25T00:30:33.603Z,6.04
2023-10-25T00:33:00.196Z,5.96
2023-10-25T00:35:27.146Z,5.90
2023-10-25T00:37:53.644Z,5.93
2023-10-25T00:40:20.184Z,5.90
2023-10-25T00:42:46.773Z,5.96
2023-10-25T00:45:13.255Z,5.98
2023-10-25T00:47:39.784Z,6.10
2023-10-25T00:50:06.557Z,6.15
2023-10-25T00:52:33.063Z,6.18
2023-10-25T00:55:00.408Z,6.33
2023-10-25T00:57:27.025Z,6.25
2023-10-25T00:59:53.706Z,6.16
2023-10-25T01:02:20.281Z,6.08
2023-10-25T01:04:46.821Z,6.01
2023-10-25T01:07:13.464Z,5.98
2023-10-25T01:09:40.112Z,6.00
2023-10-25T01:12:06.950Z,6.00
2023-10-25T01:14:33.576Z,5.97
2023-10-25T01:17:00.387Z,5.93
2023-10-25T01:19:27.054Z,5.77
2023-10-25T01:21:53.965Z,5.76
2023-10-25T01:24:21.230Z,5.72
2023-10-25T01:26:47.727Z,5.81
2023-10-25T01:29:14.235Z,5.77
2023-10-25T01:31:40.779Z,5.99
2023-10-25T01:34:07.362Z,5.93
2023-10-25T01:36:33.875Z,5.84
2023-10-25T01:39:00.457Z,5.74
2023-10-25T01:41:26.968Z,5.70
2023-10-25T01:43:53.477Z,5.68
2023-10-25T01:46:20.014Z,5.68
2023-10-25T01:48:46.667Z,5.59
2023-10-25T01:51:13.208Z,5.60
2023-10-25T01:53:39.756Z,5.61
2023-10-25T01:56:06.326Z,5.60
2023-10-25T01:58:32.864Z,5.64
2023-10-25T02:00:59.474Z,5.61
2023-10-25T02:03:26.121Z,5.55
2023-10-25T02:05:52.747Z,5.59
2023-10-25T02:08:19.250Z,5.60
2023-10-25T02:10:45.815Z,5.63
2023-10-25T02:13:12.449Z,5.86
2023-10-25T02:15:39.007Z,6.13
2023-10-25T02:18:05.630Z,6.27
2023-10-25T02:20:32.247Z,6.36
2023-10-25T02:22:58.876Z,6.42
2023-10-25T02:25:25.406Z,6.49
2023-10-25T02:27:51.964Z,6.49
2023-10-25T02:30:18.499Z,6.52
2023-10-25T02:32:45.112Z,6.46
2023-10-25T02:35:11.632Z,6.50
2023-10-25T02:37:38.736Z,6.52
2023-10-25T02:40:05.626Z,6.54
2023-10-25T02:42:32.216Z,6.56
2023-10-25T02:44:58.734Z,6.57
2023-10-25T02:47:25.342Z,6.60
2023-10-25T02:49:51.883Z,6.74
2023-10-25T02:52:18.459Z,6.71
2023-10-25T02:54:44.947Z,6.65
2023-10-25T02:57:11.501Z,6.68
2023-10-25T02:59:38.111Z,6.66
2023-10-25T03:02:05.443Z,6.73
2023-10-25T03:04:32.014Z,6.77
2023-10-25T03:06:58.593Z,6.77
2023-10-25T03:09:25.150Z,6.80
2023-10-25T03:11:51.863Z,6.83
2023-10-25T03:14:18.341Z,6.91
2023-10-25T03:16:44.986Z,6.84
2023-10-25T03:19:11.565Z,6.92
2023-10-25T03:21:38.080Z,6.84
2023-10-25T03:24:04.729Z,6.84
2023-10-25T03:26:31.236Z,6.82
2023-10-25T03:28:58.599Z,6.92
2023-10-25T03:31:25.287Z,6.92
2023-10-25T03:33:51.945Z,6.87
2023-10-25T03:36:18.406Z,6.95
2023-10-25T03:38:44.952Z,6.97
2023-10-25T03:41:11.420Z,6.97
2023-10-25T03:43:37.979Z,6.97
2023-10-25T03:46:08.735Z,6.99
2023-10-25T03:48:35.926Z,7.02
2023-10-25T03:51:05.958Z,7.03
2023-10-25T03:53:36.193Z,7.05
2023-10-25T03:56:02.839Z,7.09
2023-10-25T03:58:29.469Z,7.03
2023-10-25T04:01:03.022Z,7.15
2023-10-25T04:03:30.014Z,7.16
2023-10-25T04:05:56.702Z,7.16
2023-10-25T04:08:23.363Z,7.20
2023-10-25T04:10:53.420Z,7.23
2023-10-25T04:13:20.187Z,7.15
2023-10-25T04:16:03.097Z,7.09
2023-10-25T04:18:30.282Z,7.14
2023-10-25T04:20:57.442Z,7.11
2023-10-25T04:23:24.907Z,7.16
2023-10-25T04:25:51.435Z,7.21
2023-10-25T04:28:18.475Z,7.24
2023-10-25T04:30:45.166Z,7.28
2023-10-25T04:33:12.268Z,7.24
2023-10-25T04:35:38.788Z,7.20
2023-10-25T04:38:05.276Z,7.27
2023-10-25T04:40:32.345Z,7.24
2023-10-25T04:42:58.896Z,7.16
2023-10-25T04:45:25.420Z,7.25
2023-10-25T04:47:52.429Z,7.21
2023-10-25T04:50:21.794Z,7.18
2023-10-25T04:52:48.748Z,7.16
2023-10-25T04:55:15.380Z,7.12
2023-10-25T04:57:41.976Z,7.15
2023-10-25T05:00:11.547Z,7.11
2023-10-25T05:02:39.631Z,7.10
2023-10-25T05:05:07.596Z,7.09
2023-10-25T05:07:34.717Z,7.16
2023-10-25T05:10:01.366Z,7.18
2023-10-25T05:12:44.141Z,7.18
2023-10-25T05:15:11.092Z,7.22
2023-10-25T05:17:38.405Z,7.22
2023-10-25T05:20:08.657Z,7.20
2023-10-25T05:22:35.748Z,7.29
2023-10-25T05:25:05.780Z,7.31
2023-10-25T05:27:35.779Z,7.29
2023-10-25T05:30:05.910Z,7.30
2023-10-25T05:32:32.819Z,7.40
2023-10-25T05:35:00.184Z,7.37
2023-10-25T05:37:26.830Z,7.35
2023-10-25T05:39:53.508Z,7.35
2023-10-25T05:42:20.665Z,7.35
2023-10-25T05:44:47.638Z,7.38
2023-10-25T05:47:14.790Z,7.43
2023-10-25T05:49:42.200Z,7.43
2023-10-25T05:52:10.332Z,7.38
2023-10-25T05:54:37.182Z,7.34
2023-10-25T05:57:04.406Z,7.34
2023-10-25T05:59:31.068Z,7.29
2023-10-25T06:02:03.727Z,7.24
2023-10-25T06:04:31.195Z,7.26
2023-10-25T06:06:58.013Z,7.26
2023-10-25T06:09:24.762Z,7.26
2023-10-25T06:11:51.443Z,7.21
2023-10-25T06:14:18.094Z,7.23
2023-10-25T06:16:44.707Z,7.18
2023-10-25T06:19:11.298Z,7.20
2023-10-25T06:21:37.851Z,7.18
2023-10-25T06:24:04.538Z,7.22
2023-10-25T06:26:31.311Z,7.23
2023-10-25T06:28:57.815Z,7.17
2023-10-25T06:31:24.330Z,7.22
2023-10-25T06:33:50.901Z,7.20
2023-10-25T06:36:17.702Z,7.15
2023-10-25T06:38:44.427Z,7.17
2023-10-25T06:41:21.147Z,7.16
2023-10-25T06:43:47.844Z,7.12
2023-10-25T06:46:14.528Z,7.16
2023-10-25T06:48:41.164Z,7.20
2023-10-25T06:51:08.148Z,7.27
2023-10-25T06:53:34.986Z,7.30
2023-10-25T06:56:01.653Z,7.33
2023-10-25T06:58:28.451Z,7.32
2023-10-25T07:00:56.635Z,7.45
2023-10-25T07:03:35.914Z,7.51
2023-10-25T07:06:04.380Z,7.56
2023-10-25T07:08:34.252Z,7.55
2023-10-25T07:11:00.767Z,7.53
2023-10-25T07:13:31.084Z,7.57
2023-10-25T07:15:57.777Z,7.56
2023-10-25T07:18:24.413Z,7.67
2023-10-25T07:20:51.766Z,7.99
2023-10-25T07:23:18.398Z,8.19
2023-10-25T07:25:45.132Z,8.46
2023-10-25T07:28:11.969Z,8.67
2023-10-25T07:30:38.509Z,8.87
2023-10-25T07:33:05.101Z,8.96
2023-10-25T07:35:31.669Z,8.94
2023-10-25T07:37:58.175Z,8.88
2023-10-25T07:40:24.850Z,8.91
2023-10-25T07:42:51.513Z,8.73
2023-10-25T07:45:18.170Z,8.31
2023-10-25T07:47:44.768Z,8.24
2023-10-25T07:50:11.363Z,8.27
2023-10-25T07:52:38.073Z,8.22
2023-10-25T07:55:21.506Z,8.33
2023-10-25T07:58:22.539Z,8.41
2023-10-25T08:00:38.047Z,8.51
2023-10-25T08:03:04.701Z,8.55
2023-10-25T08:05:31.432Z,8.68
2023-10-25T08:07:57.929Z,8.78
2023-10-25T08:10:25.217Z,8.86
2023-10-25T08:12:52.049Z,8.93
2023-10-25T08:15:18.993Z,8.53
2023-10-25T08:17:45.888Z,8.71
2023-10-25T08:20:12.764Z,8.70
2023-10-25T08:22:39.423Z,8.85
2023-10-25T08:25:10.345Z,8.87
2023-10-25T08:27:37.747Z,8.98
2023-10-25T08:30:04.703Z,9.07
2023-10-25T08:32:31.419Z,8.96
2023-10-25T08:34:57.945Z,8.92
2023-10-25T08:37:24.462Z,8.89
2023-10-25T08:39:51.002Z,8.91
2023-10-25T08:42:17.529Z,8.86
2023-10-25T08:44:44.295Z,8.95
2023-10-25T08:47:11.679Z,8.95
2023-10-25T08:49:39.157Z,8.89
2023-10-25T08:52:06.018Z,8.86
2023-10-25T08:54:32.603Z,8.93
2023-10-25T08:56:59.173Z,8.80
2023-10-25T08:59:25.785Z,8.82
2023-10-25T09:01:52.322Z,8.80
2023-10-25T09:04:19.010Z,8.74
2023-10-25T09:06:46.848Z,8.80
2023-10-25T09:09:13.497Z,9.02
2023-10-25T09:11:44.175Z,8.82
2023-10-25T09:14:12.203Z,8.97
2023-10-25T09:16:46.184Z,9.02
2023-10-25T09:19:12.959Z,9.09
2023-10-25T09:21:39.477Z,8.93
2023-10-25T09:24:08.983Z,8.90
2023-10-25T09:26:36.554Z,8.92
2023-10-25T09:29:03.164Z,8.84
2023-10-25T09:31:30.503Z,8.80
2023-10-25T09:33:58.824Z,8.88
2023-10-25T09:36:25.884Z,8.89
2023-10-25T09:38:52.409Z,8.91
2023-10-25T09:41:19.072Z,8.98
2023-10-25T09:43:52.572Z,9.05
2023-10-25T09:46:20.442Z,9.01
2023-10-25T09:48:54.046Z,9.00
2023-10-25T09:51:24.927Z,9.06
2023-10-25T09:53:59.483Z,9.16
2023-10-25T09:56:26.014Z,9.16
2023-10-25T09:58:52.522Z,9.18
2023-10-25T10:01:19.027Z,9.24
2023-10-25T10:03:50.868Z,9.40
2023-10-25T10:06:29.732Z,9.36
2023-10-25T10:09:10.702Z,9.52
2023-10-25T10:11:41.784Z,9.63
2023-10-25T10:14:27.421Z,9.57
2023-10-25T10:16:56.781Z,9.89
2023-10-25T10:19:23.686Z,10.00
2023-10-25T10:22:03.284Z,9.78
2023-10-25T10:24:48.216Z,9.72
2023-10-25T10:27:18.230Z,9.81
2023-10-25T10:29:45.581Z,9.61
2023-10-25T10:32:12.347Z,9.71
2023-10-25T10:34:57.557Z,9.69
2023-10-25T10:37:25.969Z,9.68
2023-10-25T10:40:02.147Z,9.63
2023-10-25T10:42:32.190Z,9.60
2023-10-25T10:44:59.308Z,9.55
2023-10-25T10:47:58.634Z,9.56
2023-10-25T10:50:26.110Z,9.64
2023-10-25T10:52:53.077Z,9.56
2023-10-25T10:55:23.548Z,9.50
2023-10-25T10:58:06.834Z,9.51
2023-10-25T11:00:34.895Z,9.55
2023-10-25T11:03:02.240Z,9.47
2023-10-25T11:05:30.627Z,9.41
2023-10-25T11:07:57.283Z,9.22
2023-10-25T11:10:24.137Z,9.07
2023-10-25T11:12:51.253Z,8.97
2023-10-25T11:15:18.061Z,8.88
2023-10-25T11:17:44.774Z,8.78
2023-10-25T11:20:11.463Z,8.67
2023-10-25T11:22:37.977Z,8.65
2023-10-25T11:25:08.682Z,8.55
2023-10-25T11:27:36.153Z,8.55
2023-10-25T11:30:02.918Z,8.53
2023-10-25T11:32:29.754Z,8.45
2023-10-25T11:34:57.569Z,8.46
2023-10-25T11:37:24.310Z,8.45
2023-10-25T11:40:02.334Z,8.47
2023-10-25T11:42:30.885Z,8.49
2023-10-25T11:44:58.256Z,8.44
2023-10-25T11:47:24.925Z,8.47
2023-10-25T11:49:56.034Z,8.47
2023-10-25T11:52:22.958Z,8.44
2023-10-25T11:54:51.071Z,8.49
2023-10-25T11:57:17.546Z,8.56
2023-10-25T11:59:44.025Z,8.49
2023-10-25T12:02:10.563Z,8.44
2023-10-25T12:04:37.095Z,8.47
2023-10-25T12:07:06.033Z,8.44
2023-10-25T12:09:32.612Z,8.43
2023-10-25T12:11:59.137Z,8.35
2023-10-25T12:14:32.392Z,8.32
2023-10-25T12:16:59.915Z,8.25
2023-10-25T12:19:26.416Z,8.25
2023-10-25T12:21:55.296Z,8.22
2023-10-25T12:24:22.777Z,8.25
2023-10-25T12:26:49.246Z,8.23
2023-10-25T12:29:15.755Z,8.24
2023-10-25T12:31:42.216Z,8.24
2023-10-25T12:34:08.723Z,8.16
2023-10-25T12:36:35.163Z,8.18
2023-10-25T12:39:01.694Z,8.13
2023-10-25T12:41:28.226Z,8.17
2023-10-25T12:43:54.700Z,8.23
2023-10-25T12:46:21.170Z,8.24
2023-10-25T12:48:47.727Z,8.19
2023-10-25T12:51:14.240Z,8.15
2023-10-25T12:53:40.703Z,8.23
2023-10-25T12:56:07.184Z,8.17
2023-10-25T12:58:33.646Z,8.13
2023-10-25T13:01:00.709Z,8.15
2023-10-25T13:03:27.405Z,8.15
2023-10-25T13:05:54.154Z,8.28
2023-10-25T13:08:20.718Z,8.45
2023-10-25T13:10:47.194Z,8.39
2023-10-25T13:13:13.623Z,8.38
2023-10-25T13:15:40.348Z,8.35
2023-10-25T13:18:06.948Z,8.36
2023-10-25T13:20:33.681Z,8.29
2023-10-25T13:23:00.980Z,8.29
2023-10-25T13:25:27.725Z,8.30
2023-10-25T13:27:54.151Z,8.32
2023-10-25T13:30:20.627Z,8.36
2023-10-25T13:32:47.111Z,8.33
2023-10-25T13:35:13.641Z,8.41
2023-10-25T13:37:41.276Z,8.46
2023-10-25T13:40:08.483Z,8.46
2023-10-25T13:42:34.917Z,8.49
2023-10-25T13:45:02.065Z,8.49
2023-10-25T13:47:28.722Z,8.56
2023-10-25T13:49:55.276Z,8.57
2023-10-25T13:52:21.722Z,8.63
2023-10-25T13:54:48.200Z,8.59
2023-10-25T13:57:14.662Z,8.65
2023-10-25T13:59:41.564Z,8.75
2023-10-25T14:02:09.699Z,8.82
2023-10-25T14:04:36.226Z,8.90
2023-10-25T14:07:02.755Z,8.92
2023-10-25T14:09:30.995Z,8.82
2023-10-25T14:11:59.021Z,8.71
2023-10-25T14:14:25.466Z,8.67
2023-10-25T14:16:51.933Z,8.61
2023-10-25T14:19:21.281Z,8.62
2023-10-25T14:21:47.754Z,8.64
2023-10-25T14:24:14.984Z,8.58
2023-10-25T14:26:42.582Z,8.56
2023-10-25T14:29:09.350Z,8.61
2023-10-25T14:31:36.079Z,8.59
2023-10-25T14:34:02.881Z,8.61
2023-10-25T14:36:32.703Z,8.68
2023-10-25T14:38:59.289Z,8.69
2023-10-25T14:41:25.849Z,8.62
2023-10-25T14:43:52.290Z,8.61
2023-10-25T14:46:20.290Z,8.67
2023-10-25T14:48:47.372Z,8.73
2023-10-25T14:51:18.262Z,8.73
2023-10-25T14:53:48.806Z,8.71
2023-10-25T14:56:15.321Z,8.74
2023-10-25T14:58:41.865Z,8.72
2023-10-25T15:01:17.339Z,8.77
2023-10-25T15:03:43.967Z,8.76
2023-10-25T15:06:10.671Z,8.82
2023-10-25T15:08:38.072Z,8.80
2023-10-25T15:11:04.499Z,8.80
2023-10-25T15:13:30.964Z,8.79
2023-10-25T15:15:58.408Z,8.81
2023-10-25T15:18:24.933Z,8.80
2023-10-25T15:20:51.457Z,8.87
2023-10-25T15:23:18.617Z,8.80
2023-10-25T15:25:45.026Z,8.85
2023-10-25T15:28:11.616Z,8.83
2023-10-25T15:30:40.192Z,8.83
2023-10-25T15:33:08.503Z,8.82
2023-10-25T15:35:34.977Z,8.82
2023-10-25T15:38:01.453Z,8.86
2023-10-25T15:40:31.514Z,8.88
2023-10-25T15:42:59.983Z,8.83
2023-10-25T15:45:26.782Z,8.84
2023-10-25T15:47:53.398Z,8.84
2023-10-25T15:50:19.969Z,8.83
2023-10-25T15:52:52.025Z,8.86
2023-10-25T15:55:30.428Z,8.85
2023-10-25T15:57:56.864Z,8.87
2023-10-25T16:00:23.832Z,8.84
2023-10-25T16:02:50.345Z,8.88
2023-10-25T16:05:17.060Z,8.93
2023-10-25T16:07:43.514Z,8.90
2023-10-25T16:10:10.117Z,8.91
2023-10-25T16:12:36.555Z,8.92
2023-10-25T16:15:03.178Z,8.91
2023-10-25T16:17:30.028Z,8.91
2023-10-25T16:19:56.525Z,8.94
2023-10-25T16:22:23.010Z,8.91
2023-10-25T16:24:49.467Z,8.88
2023-10-25T16:27:16.113Z,8.91
2023-10-25T16:29:42.859Z,8.92
2023-10-25T16:32:09.588Z,8.92
2023-10-25T16:34:36.112Z,8.96
2023-10-25T16:37:06.183Z,8.98
2023-10-25T16:39:33.961Z,8.97
2023-10-25T16:42:01.134Z,9.00
2023-10-25T16:44:27.671Z,9.06
2023-10-25T16:46:54.261Z,9.04
2023-10-25T16:49:20.726Z,9.03
2023-10-25T16:51:47.279Z,9.05
2023-10-25T16:54:13.772Z,9.04
2023-10-25T16:56:40.375Z,9.08
2023-10-25T16:59:06.836Z,9.09
2023-10-25T17:01:33.347Z,9.10
2023-10-25T17:04:00.096Z,9.19
2023-10-25T17:06:26.939Z,9.24
2023-10-25T17:08:54.676Z,9.21
2023-10-25T17:11:23.259Z,9.26
2023-10-25T17:13:49.696Z,9.27
2023-10-25T17:16:17.878Z,9.31
2023-10-25T17:18:45.460Z,9.29
2023-10-25T17:21:14.423Z,9.34
2023-10-25T17:23:41.530Z,9.33
2023-10-25T17:26:08.027Z,9.33
2023-10-25T17:28:35.090Z,9.36
2023-10-25T17:31:01.908Z,9.39
2023-10-25T17:33:29.237Z,9.40
2023-10-25T17:35:56.007Z,9.40
2023-10-25T17:38:22.550Z,9.39
2023-10-25T17:40:49.933Z,9.40
2023-10-25T17:43:16.616Z,9.41
2023-10-25T17:46:00.553Z,9.43
2023-10-25T17:48:30.577Z,9.47
2023-10-25T17:50:57.201Z,9.48
2023-10-25T17:53:23.853Z,9.50
2023-10-25T17:55:50.350Z,9.53
2023-10-25T17:58:16.838Z,9.54
2023-10-25T18:00:46.845Z,9.54
2023-10-25T18:03:13.573Z,9.58
2023-10-25T18:05:40.737Z,9.56
2023-10-25T18:08:12.264Z,9.55
2023-10-25T18:10:42.314Z,9.59
2023-10-25T18:13:08.871Z,9.62
2023-10-25T18:15:36.439Z,9.62
2023-10-25T18:18:04.567Z,9.64
2023-10-25T18:20:31.504Z,9.68
2023-10-25T18:22:58.033Z,9.68
2023-10-25T18:25:27.547Z,9.68
2023-10-25T18:27:58.291Z,9.75
2023-10-25T18:31:53.918Z,9.75
2023-10-25T18:33:12.017Z,9.76
2023-10-25T18:35:38.776Z,9.75
2023-10-25T18:38:05.961Z,9.79
2023-10-25T18:40:32.411Z,9.79
2023-10-25T18:42:58.911Z,9.78
2023-10-25T18:45:25.456Z,9.80
2023-10-25T18:47:52.015Z,9.75
2023-10-25T18:50:18.714Z,9.76
2023-10-25T18:52:45.233Z,9.75
2023-10-25T18:55:13.495Z,9.73
2023-10-25T18:57:39.992Z,9.73
2023-10-25T19:00:09.442Z,9.75
2023-10-25T19:02:36.300Z,9.78
2023-10-25T19:06:30.816Z,9.73
2023-10-25T19:08:26.544Z,9.75
2023-10-25T19:10:36.559Z,9.76
2023-10-25T19:13:04.027Z,9.76
2023-10-25T19:15:30.745Z,9.80
2023-10-25T19:17:57.513Z,9.82
2023-10-25T19:20:24.021Z,9.78
2023-10-25T19:22:51.160Z,9.74
2023-10-25T19:25:17.815Z,9.72
2023-10-25T19:27:44.301Z,9.74
2023-10-25T19:30:13.167Z,9.73
2023-10-25T19:32:39.725Z,9.66
2023-10-25T19:35:06.322Z,9.64
2023-10-25T19:37:34.634Z,9.62
2023-10-25T19:40:01.473Z,9.56
2023-10-25T19:42:27.991Z,9.60
2023-10-25T19:44:54.529Z,9.58
2023-10-25T19:47:21.285Z,9.56
2023-10-25T19:49:47.788Z,9.44
2023-10-25T19:52:14.388Z,9.40
2023-10-25T19:54:40.955Z,9.40
2023-10-25T19:57:07.516Z,9.35
2023-10-25T19:59:34.045Z,9.33
2023-10-25T20:02:00.720Z,9.38
2023-10-25T20:04:29.235Z,9.31
2023-10-25T20:06:55.886Z,9.26
2023-10-25T20:09:22.466Z,9.24
2023-10-25T20:11:49.079Z,9.25
2023-10-25T20:14:15.596Z,9.21
2023-10-25T20:16:42.066Z,9.20
2023-10-25T20:19:09.901Z,9.17
2023-10-25T20:21:36.367Z,9.21
2023-10-25T20:24:03.494Z,9.15
2023-10-25T20:26:34.775Z,9.14
2023-10-25T20:29:02.120Z,9.08
2023-10-25T20:31:28.630Z,9.09
2023-10-25T20:33:55.086Z,9.08
2023-10-25T20:36:21.827Z,9.04
2023-10-25T20:38:49.101Z,9.10
2023-10-25T20:41:15.992Z,9.03
2023-10-25T20:43:42.457Z,9.01
2023-10-25T20:46:09.217Z,9.04
2023-10-25T20:48:35.866Z,9.04
2023-10-25T20:51:05.751Z,9.02
2023-10-25T20:53:34.025Z,9.02
2023-10-25T20:56:01.071Z,9.06
2023-10-25T20:58:28.089Z,8.99
2023-10-25T21:00:54.619Z,9.00
2023-10-25T21:03:21.217Z,8.96
2023-10-25T21:05:53.884Z,8.92
2023-10-25T21:08:20.342Z,8.95
2023-10-25T21:10:46.814Z,8.97
2023-10-25T21:13:13.459Z,8.94
2023-10-25T21:15:39.930Z,8.88
2023-10-25T21:18:06.705Z,8.86
2023-10-25T21:20:33.361Z,8.88
2023-10-25T21:23:00.229Z,8.84
2023-10-25T21:25:26.721Z,8.80
2023-10-25T21:27:53.204Z,8.83
2023-10-25T21:30:19.697Z,8.83
2023-10-25T21:32:46.259Z,8.82
2023-10-25T21:35:12.824Z,8.78
2023-10-25T21:37:41.213Z,8.82
2023-10-25T21:40:08.002Z,8.83
2023-10-25T21:42:34.475Z,8.77
2023-10-25T21:45:00.924Z,8.76
2023-10-25T21:47:27.413Z,8.77
2023-10-25T21:49:54.024Z,8.83
2023-10-25T21:52:20.465Z,8.79
2023-10-25T21:54:46.892Z,8.76
2023-10-25T21:57:13.414Z,8.74
2023-10-25T21:59:49.969Z,8.75
2023-10-25T22:02:26.950Z,8.73
2023-10-25T22:04:54.203Z,8.73
2023-10-25T22:07:21.009Z,8.72
2023-10-25T22:09:47.815Z,8.75
2023-10-25T22:12:14.350Z,8.73
2023-10-25T22:14:40.838Z,8.78
2023-10-25T22:17:07.636Z,8.75
2023-10-25T22:19:34.112Z,8.72
2023-10-25T22:22:00.588Z,8.66
2023-10-25T22:24:27.112Z,8.66
2023-10-25T22:26:53.675Z,8.69
2023-10-25T22:29:20.273Z,8.65
2023-10-25T22:31:46.813Z,8.64
2023-10-25T22:34:18.226Z,8.71
2023-10-25T22:36:49.192Z,8.70
2023-10-25T22:39:16.360Z,8.64
2023-10-25T22:41:46.211Z,8.65
2023-10-25T22:44:13.273Z,8.62
2023-10-25T22:46:40.010Z,8.61
2023-10-25T22:49:06.551Z,8.57
2023-10-25T22:51:33.134Z,8.56
2023-10-25T22:53:59.707Z,8.60
2023-10-25T22:56:26.261Z,8.58
2023-10-25T22:58:52.728Z,8.57
2023-10-25T23:01:19.212Z,8.50
2023-10-25T23:03:45.763Z,8.50
2023-10-25T23:06:12.305Z,8.50
2023-10-25T23:08:38.809Z,8.54
2023-10-25T23:11:05.299Z,8.47
2023-10-25T23:13:31.797Z,8.48
2023-10-25T23:16:01.836Z,8.48
2023-10-25T23:18:28.470Z,8.47
2023-10-25T23:20:55.095Z,8.50
2023-10-25T23:23:21.574Z,8.48
2023-10-25T23:25:48.044Z,8.55
2023-10-25T23:28:14.502Z,8.54
2023-10-25T23:30:40.997Z,8.54
2023-10-25T23:33:07.560Z,8.51
2023-10-25T23:35:34.073Z,8.50
2023-10-25T23:38:00.721Z,8.50
2023-10-25T23:40:27.172Z,8.48
2023-10-25T23:42:53.596Z,8.50
2023-10-25T23:45:20.152Z,8.55
2023-10-25T23:47:46.765Z,8.50
2023-10-25T23:50:13.308Z,8.47
2023-10-25T23:52:44.489Z,8.56
2023-10-25T23:55:12.988Z,8.49
2023-10-25T23:57:39.458Z,8.52
